createdAt,value
2018-07-10T00:00:32.064Z,1015.39
2018-07-10T00:01:32.069Z,1015.38
2018-07-10T00:02:32.057Z,1015.40
2018-07-10T00:03:32.063Z,1015.42
2018-07-10T00:04:32.062Z,1015.39
2018-07-10T00:05:32.059Z,1015.41
2018-07-10T00:06:32.059Z,1015.42
2018-07-10T00:07:32.054Z,1015.39
2018-07-10T00:08:32.052Z,1015.37
2018-07-10T00:09:32.049Z,1015.38
2018-07-10T00:10:32.054Z,1015.40
2018-07-10T00:11:32.053Z,1015.36
2018-07-10T00:12:32.050Z,1015.32
2018-07-10T00:13:32.051Z,1015.34
2018-07-10T00:14:32.043Z,1015.35
2018-07-10T00:15:32.046Z,1015.35
2018-07-10T00:16:32.041Z,1015.37
2018-07-10T00:17:32.040Z,1015.29
2018-07-10T00:18:32.045Z,1015.34
2018-07-10T00:19:32.041Z,1015.34
2018-07-10T00:20:32.038Z,1015.33
2018-07-10T00:21:32.037Z,1015.34
2018-07-10T00:22:32.038Z,1015.34
2018-07-10T00:23:32.036Z,1015.33
2018-07-10T00:24:32.038Z,1015.35
2018-07-10T00:25:32.036Z,1015.42
2018-07-10T00:26:32.030Z,1015.44
2018-07-10T00:27:32.028Z,1015.41
2018-07-10T00:28:32.026Z,1015.45
2018-07-10T00:29:32.029Z,1015.40
2018-07-10T00:30:32.031Z,1015.42
2018-07-10T00:31:32.029Z,1015.47
2018-07-10T00:32:32.025Z,1015.47
2018-07-10T00:33:32.022Z,1015.45
2018-07-10T00:34:32.018Z,1015.40
2018-07-10T00:35:32.015Z,1015.43
2018-07-10T00:36:32.024Z,1015.40
2018-07-10T00:37:32.016Z,1015.43
2018-07-10T00:38:32.010Z,1015.38
2018-07-10T00:39:32.009Z,1015.42
2018-07-10T00:40:32.007Z,1015.36
2018-07-10T00:41:32.005Z,1015.39
2018-07-10T00:42:32.010Z,1015.35
2018-07-10T00:43:32.008Z,1015.31
2018-07-10T00:44:32.006Z,1015.31
2018-07-10T00:45:32.005Z,1015.31
2018-07-10T00:46:31.997Z,1015.29
2018-07-10T00:47:31.996Z,1015.24
2018-07-10T00:48:31.994Z,1015.26
2018-07-10T00:49:31.993Z,1015.20
2018-07-10T00:50:31.995Z,1015.29
2018-07-10T00:51:31.994Z,1015.34
2018-07-10T00:52:31.989Z,1015.32
2018-07-10T00:53:31.985Z,1015.27
2018-07-10T00:54:31.991Z,1015.29
2018-07-10T00:55:31.985Z,1015.27
2018-07-10T00:56:31.988Z,1015.32
2018-07-10T00:57:31.982Z,1015.29
2018-07-10T00:58:31.974Z,1015.27
2018-07-10T00:59:31.974Z,1015.22
2018-07-10T01:00:31.976Z,1015.28
2018-07-10T01:01:31.975Z,1015.26
2018-07-10T01:02:31.969Z,1015.25
2018-07-10T01:03:31.971Z,1015.23
2018-07-10T01:04:31.964Z,1015.23
2018-07-10T01:05:31.964Z,1015.21
2018-07-10T01:06:31.967Z,1015.22
2018-07-10T01:07:31.964Z,1015.19
2018-07-10T01:08:31.957Z,1015.25
2018-07-10T01:09:31.954Z,1015.20
2018-07-10T01:10:31.958Z,1015.20
2018-07-10T01:11:31.955Z,1015.19
2018-07-10T01:12:31.955Z,1015.20
2018-07-10T01:13:31.952Z,1015.23
2018-07-10T01:14:31.945Z,1015.28
2018-07-10T01:15:31.944Z,1015.26
2018-07-10T01:16:31.945Z,1015.22
2018-07-10T01:17:31.940Z,1015.31
2018-07-10T01:18:31.942Z,1015.28
2018-07-10T01:19:31.940Z,1015.36
2018-07-10T01:20:31.938Z,1015.33
2018-07-10T01:21:31.940Z,1015.34
2018-07-10T01:22:31.931Z,1015.29
2018-07-10T01:23:31.929Z,1015.33
2018-07-10T01:24:31.930Z,1015.36
2018-07-10T01:25:31.931Z,1015.34
2018-07-10T01:26:31.923Z,1015.30
2018-07-10T01:27:31.920Z,1015.30
2018-07-10T01:28:31.916Z,1015.26
2018-07-10T01:29:31.916Z,1015.21
2018-07-10T01:30:31.918Z,1015.23
2018-07-10T01:31:31.916Z,1015.22
2018-07-10T01:32:31.914Z,1015.25
2018-07-10T01:33:31.912Z,1015.24
2018-07-10T01:34:31.906Z,1015.21
2018-07-10T01:35:31.905Z,1015.19
2018-07-10T01:36:31.899Z,1015.19
2018-07-10T01:37:31.900Z,1015.17
2018-07-10T01:38:31.902Z,1015.16
2018-07-10T01:39:31.949Z,1015.18
2018-07-10T01:40:31.895Z,1015.11
2018-07-10T01:41:31.891Z,1015.15
2018-07-10T01:42:31.892Z,1015.13
2018-07-10T01:43:31.890Z,1015.09
2018-07-10T01:44:31.888Z,1015.06
2018-07-10T01:45:31.884Z,1015.11
2018-07-10T01:46:31.878Z,1015.09
2018-07-10T01:47:31.876Z,1015.06
2018-07-10T01:48:31.876Z,1015.09
2018-07-10T01:49:31.874Z,1015.08
2018-07-10T01:50:31.874Z,1015.12
2018-07-10T01:51:31.872Z,1015.05
2018-07-10T01:52:31.870Z,1015.05
2018-07-10T01:53:31.868Z,1015.05
2018-07-10T01:58:31.854Z,1015.01
2018-07-10T01:59:31.851Z,1015.00
2018-07-10T02:00:31.848Z,1015.04
2018-07-10T02:01:31.846Z,1015.03
2018-07-10T02:02:31.848Z,1014.98
2018-07-10T02:03:31.848Z,1014.99
2018-07-10T02:04:31.844Z,1015.00
2018-07-10T02:05:31.843Z,1014.98
2018-07-10T02:06:31.836Z,1014.94
2018-07-10T02:07:31.835Z,1014.96
2018-07-10T02:08:31.832Z,1014.95
2018-07-10T02:09:31.829Z,1014.94
2018-07-10T02:10:31.832Z,1014.93
2018-07-10T02:11:31.831Z,1014.92
2018-07-10T02:12:31.823Z,1014.94
2018-07-10T02:13:31.821Z,1014.94
2018-07-10T02:14:31.824Z,1014.97
2018-07-10T02:15:31.822Z,1014.93
2018-07-10T02:16:31.820Z,1014.89
2018-07-10T02:17:31.819Z,1014.91
2018-07-10T02:18:31.816Z,1014.92
2018-07-10T02:19:31.850Z,1014.92
2018-07-10T02:20:31.806Z,1014.88
2018-07-10T02:21:31.804Z,1014.90
2018-07-10T02:22:31.807Z,1014.92
2018-07-10T02:23:31.805Z,1014.90
2018-07-10T02:24:31.802Z,1014.93
2018-07-10T02:25:31.800Z,1014.96
2018-07-10T02:26:31.794Z,1014.91
2018-07-10T02:27:31.791Z,1014.94
2018-07-10T02:28:31.793Z,1014.94
2018-07-10T02:29:31.793Z,1014.92
2018-07-10T02:30:31.785Z,1014.93
2018-07-10T02:31:31.784Z,1014.91
2018-07-10T02:32:31.781Z,1014.91
2018-07-10T02:33:31.779Z,1014.92
2018-07-10T02:34:31.782Z,1014.98
2018-07-10T02:35:31.779Z,1014.95
2018-07-10T02:36:31.777Z,1014.90
2018-07-10T02:37:31.778Z,1014.93
2018-07-10T02:38:31.767Z,1014.94
2018-07-10T02:39:31.766Z,1014.93
2018-07-10T02:40:31.764Z,1014.89
2018-07-10T02:41:31.762Z,1014.86
2018-07-10T02:42:31.764Z,1014.86
2018-07-10T02:43:31.761Z,1014.85
2018-07-10T02:44:31.754Z,1014.91
2018-07-10T02:45:31.756Z,1014.84
2018-07-10T02:46:31.754Z,1014.85
2018-07-10T02:47:31.755Z,1014.85
2018-07-10T02:48:31.754Z,1014.84
2018-07-10T02:49:31.752Z,1014.82
2018-07-10T02:50:31.743Z,1014.83
2018-07-10T02:51:31.749Z,1014.81
2018-07-10T02:52:31.738Z,1014.84
2018-07-10T02:53:31.737Z,1014.80
2018-07-10T02:54:31.738Z,1014.84
2018-07-10T02:55:31.742Z,1014.81
2018-07-10T02:56:31.731Z,1014.83
2018-07-10T02:57:31.731Z,1014.78
2018-07-10T02:58:31.730Z,1014.81
2018-07-10T02:59:31.722Z,1014.75
2018-07-10T03:00:31.724Z,1014.75
2018-07-10T03:01:31.722Z,1014.74
2018-07-10T03:02:31.714Z,1014.73
2018-07-10T03:03:31.726Z,1014.75
2018-07-10T03:04:31.711Z,1014.72
2018-07-10T03:05:31.709Z,1014.72
2018-07-10T03:06:31.711Z,1014.71
2018-07-10T03:07:31.709Z,1014.73
2018-07-10T03:08:31.705Z,1014.74
2018-07-10T03:09:31.708Z,1014.74
2018-07-10T03:10:31.697Z,1014.72
2018-07-10T03:11:31.694Z,1014.76
2018-07-10T03:12:31.726Z,1014.77
2018-07-10T03:13:31.689Z,1014.78
2018-07-10T03:14:31.693Z,1014.76
2018-07-10T03:15:31.691Z,1014.77
2018-07-10T03:16:31.682Z,1014.82
2018-07-10T03:17:31.681Z,1014.80
2018-07-10T03:18:31.684Z,1014.76
2018-07-10T03:19:31.686Z,1014.79
2018-07-10T03:20:31.677Z,1014.76
2018-07-10T03:21:31.676Z,1014.74
2018-07-10T03:22:31.673Z,1014.74
2018-07-10T03:23:31.672Z,1014.72
2018-07-10T03:24:31.665Z,1014.74
2018-07-10T03:25:31.662Z,1014.71
2018-07-10T03:26:31.667Z,1014.70
2018-07-10T03:27:31.663Z,1014.73
2018-07-10T03:28:31.660Z,1014.73
2018-07-10T03:29:31.661Z,1014.68
2018-07-10T03:30:31.651Z,1014.74
2018-07-10T03:31:31.650Z,1014.69
2018-07-10T03:32:31.653Z,1014.73
2018-07-10T03:33:31.650Z,1014.71
2018-07-10T03:34:31.642Z,1014.66
2018-07-10T03:35:31.641Z,1014.65
2018-07-10T03:36:31.673Z,1014.63
2018-07-10T03:37:31.635Z,1014.62
2018-07-10T03:38:31.638Z,1014.62
2018-07-10T03:39:31.636Z,1014.63
2018-07-10T03:40:31.632Z,1014.64
2018-07-10T03:41:31.630Z,1014.69
2018-07-10T03:42:31.626Z,1014.71
2018-07-10T03:43:31.622Z,1014.69
2018-07-10T03:44:31.619Z,1014.75
2018-07-10T03:45:31.618Z,1014.75
2018-07-10T03:46:31.619Z,1014.73
2018-07-10T03:47:31.619Z,1014.72
2018-07-10T03:48:31.611Z,1014.70
2018-07-10T03:49:31.608Z,1014.73
2018-07-10T03:50:31.611Z,1014.68
2018-07-10T03:51:31.616Z,1014.66
2018-07-10T03:52:31.608Z,1014.64
2018-07-10T03:53:31.603Z,1014.68
2018-07-10T03:54:31.598Z,1014.66
2018-07-10T03:55:31.594Z,1014.68
2018-07-10T03:56:31.591Z,1014.70
2018-07-10T03:57:31.589Z,1014.72
2018-07-10T03:58:31.592Z,1014.72
2018-07-10T03:59:31.589Z,1014.76
2018-07-10T04:00:31.589Z,1014.72
2018-07-10T04:01:31.609Z,1014.71
2018-07-10T04:02:31.578Z,1014.71
2018-07-10T04:03:31.576Z,1014.76
2018-07-10T04:04:31.577Z,1014.77
2018-07-10T04:05:31.575Z,1014.79
2018-07-10T04:06:31.569Z,1014.80
2018-07-10T04:07:31.567Z,1014.76
2018-07-10T04:08:31.563Z,1014.80
2018-07-10T04:09:31.560Z,1014.77
2018-07-10T04:10:31.566Z,1014.77
2018-07-10T04:11:31.561Z,1014.76
2018-07-10T04:12:31.558Z,1014.84
2018-07-10T04:13:31.558Z,1014.85
2018-07-10T04:14:31.549Z,1014.82
2018-07-10T04:15:31.547Z,1014.85
2018-07-10T04:16:31.546Z,1014.85
2018-07-10T04:17:31.543Z,1014.87
2018-07-10T04:18:31.544Z,1014.86
2018-07-10T04:19:31.542Z,1014.91
2018-07-10T04:20:31.534Z,1014.87
2018-07-10T04:21:31.533Z,1014.87
2018-07-10T04:22:31.538Z,1014.81
2018-07-10T04:23:31.533Z,1014.79
2018-07-10T04:24:31.530Z,1014.82
2018-07-10T04:25:31.529Z,1014.79
2018-07-10T04:26:31.521Z,1014.78
2018-07-10T04:27:31.519Z,1014.79
2018-07-10T04:28:31.517Z,1014.77
2018-07-10T04:29:31.514Z,1014.80
2018-07-10T04:30:31.516Z,1014.81
2018-07-10T04:31:31.515Z,1014.81
2018-07-10T04:32:31.511Z,1014.85
2018-07-10T04:33:31.509Z,1014.84
2018-07-10T04:34:31.502Z,1014.84
2018-07-10T04:35:31.500Z,1014.80
2018-07-10T04:36:31.503Z,1014.80
2018-07-10T04:37:31.499Z,1014.79
2018-07-10T04:38:31.493Z,1014.79
2018-07-10T04:39:31.493Z,1014.80
2018-07-10T04:40:31.488Z,1014.74
2018-07-10T04:41:31.486Z,1014.70
2018-07-10T04:42:31.493Z,1014.71
2018-07-10T04:43:31.488Z,1014.71
2018-07-10T04:44:31.488Z,1014.74
2018-07-10T04:45:31.482Z,1014.75
2018-07-10T04:46:31.475Z,1014.76
2018-07-10T04:47:31.474Z,1014.76
2018-07-10T04:48:31.473Z,1014.75
2018-07-10T04:49:31.469Z,1014.74
2018-07-10T04:50:31.471Z,1014.74
2018-07-10T04:51:31.469Z,1014.77
2018-07-10T04:52:31.463Z,1014.81
2018-07-10T04:53:31.459Z,1014.76
2018-07-10T04:54:31.462Z,1014.77
2018-07-10T04:55:31.539Z,1014.78
2018-07-10T04:56:31.459Z,1014.77
2018-07-10T04:57:31.458Z,1014.76
2018-07-10T04:58:31.454Z,1014.78
2018-07-10T04:59:31.452Z,1014.89
2018-07-10T05:00:31.446Z,1014.84
2018-07-10T05:01:31.445Z,1014.92
2018-07-10T05:02:31.450Z,1014.93
2018-07-10T05:03:31.447Z,1015.04
2018-07-10T05:04:31.445Z,1015.05
2018-07-10T05:05:31.444Z,1015.07
2018-07-10T05:06:31.440Z,1015.14
2018-07-10T05:07:31.440Z,1015.26
2018-07-10T05:08:31.441Z,1015.25
2018-07-10T05:09:31.450Z,1015.37
2018-07-10T05:10:31.447Z,1015.38
2018-07-10T05:11:31.438Z,1015.44
2018-07-10T05:12:31.447Z,1015.42
2018-07-10T05:13:31.439Z,1015.45
2018-07-10T05:14:31.446Z,1015.54
2018-07-10T05:15:31.447Z,1015.57
2018-07-10T05:16:31.447Z,1015.61
2018-07-10T05:17:31.450Z,1015.63
2018-07-10T05:18:31.446Z,1015.73
2018-07-10T05:19:31.448Z,1015.68
2018-07-10T05:20:31.450Z,1015.47
2018-07-10T05:21:31.452Z,1015.76
2018-07-10T05:22:31.459Z,1015.70
2018-07-10T05:23:31.462Z,1015.72
2018-07-10T05:24:31.459Z,1015.80
2018-07-10T05:25:31.462Z,1015.81
2018-07-10T05:26:31.469Z,1015.69
2018-07-10T05:27:31.473Z,1015.41
2018-07-10T05:28:31.476Z,1015.83
2018-07-10T05:29:31.480Z,1015.23
2018-07-10T05:30:31.484Z,1015.11
2018-07-10T05:31:31.484Z,1015.19
2018-07-10T05:32:31.487Z,1015.26
2018-07-10T05:33:31.491Z,1015.04
2018-07-10T05:34:31.500Z,1015.38
2018-07-10T05:35:31.506Z,1015.06
2018-07-10T05:36:31.507Z,1015.09
2018-07-10T05:37:31.513Z,1015.10
2018-07-10T05:38:31.509Z,1015.02
2018-07-10T05:39:31.514Z,1014.96
2018-07-10T05:40:31.521Z,1014.92
2018-07-10T05:41:31.524Z,1014.94
2018-07-10T05:42:31.524Z,1014.86
2018-07-10T05:43:31.528Z,1014.91
2018-07-10T05:44:31.531Z,1014.86
2018-07-10T05:45:31.534Z,1014.84
2018-07-10T05:46:31.580Z,1014.83
2018-07-10T05:47:31.548Z,1014.84
2018-07-10T05:48:31.550Z,1014.88
2018-07-10T05:49:31.553Z,1014.92
2018-07-10T05:50:31.551Z,1014.86
2018-07-10T05:51:31.555Z,1014.83
2018-07-10T05:52:31.556Z,1014.86
2018-07-10T05:53:31.559Z,1014.86
2018-07-10T05:54:31.568Z,1014.83
2018-07-10T05:55:31.570Z,1014.84
2018-07-10T05:56:31.568Z,1014.87
2018-07-10T05:57:31.571Z,1014.77
2018-07-10T05:58:31.635Z,1014.78
2018-07-10T05:59:31.582Z,1014.77
2018-07-10T06:00:31.591Z,1014.68
2018-07-10T06:01:31.587Z,1014.71
2018-07-10T06:02:31.585Z,1014.75
2018-07-10T06:03:31.586Z,1014.70
2018-07-10T06:04:31.619Z,1014.70
2018-07-10T06:05:31.591Z,1014.71
2018-07-10T06:06:31.599Z,1014.69
2018-07-10T06:07:31.603Z,1014.78
2018-07-10T06:08:31.604Z,1014.66
2018-07-10T06:09:31.604Z,1014.72
2018-07-10T06:10:31.640Z,1014.69
2018-07-10T06:11:31.605Z,1014.72
2018-07-10T06:12:31.614Z,1014.70
2018-07-10T06:13:31.615Z,1014.73
2018-07-10T06:14:31.612Z,1014.66
2018-07-10T06:15:31.615Z,1014.70
2018-07-10T06:16:31.618Z,1014.71
2018-07-10T06:17:31.621Z,1014.65
2018-07-10T06:18:31.628Z,1014.63
2018-07-10T06:19:31.631Z,1014.60
2018-07-10T06:20:31.632Z,1014.59
2018-07-10T06:21:31.636Z,1014.59
2018-07-10T06:22:31.634Z,1014.58
2018-07-10T06:23:31.638Z,1014.62
2018-07-10T06:24:31.639Z,1014.58
2018-07-10T06:25:31.642Z,1014.59
2018-07-10T06:26:31.649Z,1014.60
2018-07-10T06:27:31.653Z,1014.61
2018-07-10T06:28:31.650Z,1014.55
2018-07-10T06:29:31.652Z,1014.51
2018-07-10T06:30:31.669Z,1014.59
2018-07-10T06:31:31.664Z,1014.59
2018-07-10T06:32:31.665Z,1014.58
2018-07-10T06:33:31.668Z,1014.51
2018-07-10T06:34:31.666Z,1014.49
2018-07-10T06:35:31.671Z,1014.50
2018-07-10T06:36:31.672Z,1014.47
2018-07-10T06:37:31.682Z,1014.47
2018-07-10T06:38:31.681Z,1014.49
2018-07-10T06:39:31.683Z,1014.52
2018-07-10T06:40:31.687Z,1014.51
2018-07-10T06:41:31.688Z,1014.46
2018-07-10T06:42:31.686Z,1014.49
2018-07-10T06:43:31.689Z,1014.49
2018-07-10T06:44:31.694Z,1014.41
2018-07-10T06:45:31.698Z,1014.45
2018-07-10T06:46:31.696Z,1014.38
2018-07-10T06:47:31.697Z,1014.37
2018-07-10T06:48:31.698Z,1014.37
2018-07-10T06:49:31.702Z,1014.35
2018-07-10T06:50:31.709Z,1014.29
2018-07-10T06:51:31.711Z,1014.31
2018-07-10T06:52:31.832Z,1014.30
2018-07-10T06:53:31.868Z,1014.34
2018-07-10T06:54:31.713Z,1014.34
2018-07-10T06:55:31.714Z,1014.30
2018-07-10T06:56:31.714Z,1014.32
2018-07-10T06:57:31.718Z,1014.26
2018-07-10T06:58:31.725Z,1014.31
2018-07-10T06:59:31.726Z,1014.32
2018-07-10T07:00:31.796Z,1014.27
2018-07-10T07:01:31.724Z,1014.25
2018-07-10T07:02:31.730Z,1014.27
2018-07-10T07:03:31.732Z,1014.22
2018-07-10T07:04:31.733Z,1014.20
2018-07-10T07:05:31.734Z,1014.26
2018-07-10T07:06:31.735Z,1014.24
2018-07-10T07:07:31.733Z,1014.25
2018-07-10T07:08:31.734Z,1014.25
2018-07-10T07:09:31.736Z,1014.27
2018-07-10T07:10:31.741Z,1014.26
2018-07-10T07:11:31.743Z,1014.26
2018-07-10T07:12:31.745Z,1014.25
2018-07-10T07:13:31.746Z,1014.26
2018-07-10T07:14:31.743Z,1014.26
2018-07-10T07:15:31.743Z,1014.26
2018-07-10T07:16:31.749Z,1014.27
2018-07-10T07:17:31.751Z,1014.30
2018-07-10T07:18:31.748Z,1014.29
2018-07-10T07:19:31.749Z,1014.33
2018-07-10T07:20:31.748Z,1014.31
2018-07-10T07:21:31.751Z,1014.29
2018-07-10T07:22:31.755Z,1014.26
2018-07-10T07:23:31.756Z,1014.23
2018-07-10T07:24:31.757Z,1014.28
2018-07-10T07:25:31.758Z,1014.27
2018-07-10T07:26:31.754Z,1014.29
2018-07-10T07:27:31.755Z,1014.29
2018-07-10T07:28:31.756Z,1014.29
2018-07-10T07:29:31.759Z,1014.30
2018-07-10T07:30:31.761Z,1014.26
2018-07-10T07:31:31.762Z,1014.20
2018-07-10T07:32:31.767Z,1014.27
2018-07-10T07:33:31.759Z,1014.25
2018-07-10T07:34:31.764Z,1014.25
2018-07-10T07:35:31.766Z,1014.18
2018-07-10T07:36:31.768Z,1014.18
2018-07-10T07:37:31.767Z,1014.19
2018-07-10T07:38:31.764Z,1014.23
2018-07-10T07:39:31.765Z,1014.18
2018-07-10T07:40:31.765Z,1014.18
2018-07-10T07:41:31.765Z,1014.12
2018-07-10T07:42:31.773Z,1014.16
2018-07-10T07:43:31.773Z,1014.12
2018-07-10T07:44:31.772Z,1014.17
2018-07-10T07:45:31.776Z,1014.08
2018-07-10T07:46:31.770Z,1014.06
2018-07-10T07:47:31.771Z,1014.11
2018-07-10T07:48:31.774Z,1014.07
2018-07-10T07:49:31.774Z,1014.01
2018-07-10T07:50:31.771Z,1014.04
2018-07-10T07:51:31.772Z,1013.99
2018-07-10T07:52:31.855Z,1013.99
2018-07-10T07:53:31.773Z,1013.98
2018-07-10T07:54:31.779Z,1013.98
2018-07-10T07:55:31.780Z,1013.97
2018-07-10T07:56:31.780Z,1013.96
2018-07-10T07:57:31.779Z,1014.01
2018-07-10T07:58:31.862Z,1014.01
2018-07-10T07:59:31.778Z,1013.97
2018-07-10T08:00:31.846Z,1013.98
2018-07-10T08:01:31.778Z,1014.00
2018-07-10T08:02:31.782Z,1013.94
2018-07-10T08:03:31.814Z,1013.94
2018-07-10T08:04:31.779Z,1013.95
2018-07-10T08:05:31.780Z,1013.88
2018-07-10T08:06:31.785Z,1013.88
2018-07-10T08:07:31.787Z,1013.91
2018-07-10T08:08:31.786Z,1013.87
2018-07-10T08:09:31.789Z,1013.89
2018-07-10T08:10:31.783Z,1013.88
2018-07-10T08:11:31.784Z,1013.89
2018-07-10T08:12:31.784Z,1013.89
2018-07-10T08:13:31.786Z,1013.84
2018-07-10T08:14:31.791Z,1013.81
2018-07-10T08:15:31.792Z,1013.84
2018-07-10T08:16:31.791Z,1013.87
2018-07-10T08:17:31.791Z,1013.86
2018-07-10T08:18:31.788Z,1013.77
2018-07-10T08:19:31.788Z,1013.82
2018-07-10T08:20:31.792Z,1013.84
2018-07-10T08:21:31.792Z,1013.79
2018-07-10T08:22:31.789Z,1013.85
2018-07-10T08:23:31.789Z,1013.79
2018-07-10T08:24:31.804Z,1013.82
2018-07-10T08:25:31.795Z,1013.79
2018-07-10T08:26:31.796Z,1013.79
2018-07-10T08:27:31.797Z,1013.78
2018-07-10T08:28:31.796Z,1013.79
2018-07-10T08:29:31.799Z,1013.80
2018-07-10T08:30:31.793Z,1013.75
2018-07-10T08:31:31.793Z,1013.72
2018-07-10T08:32:31.794Z,1013.71
2018-07-10T08:33:31.939Z,1013.74
2018-07-10T08:34:31.802Z,1013.69
2018-07-10T08:35:31.800Z,1013.67
2018-07-10T08:36:31.796Z,1013.66
2018-07-10T08:37:31.796Z,1013.65
2018-07-10T08:38:31.803Z,1013.63
2018-07-10T08:39:31.802Z,1013.66
2018-07-10T08:40:31.803Z,1013.68
2018-07-10T08:41:31.803Z,1013.64
2018-07-10T08:42:31.799Z,1013.64
2018-07-10T08:43:31.799Z,1013.62
2018-07-10T08:44:31.800Z,1013.60
2018-07-10T08:45:31.802Z,1013.59
2018-07-10T08:46:31.807Z,1013.58
2018-07-10T08:47:31.808Z,1013.57
2018-07-10T08:48:31.808Z,1013.56
2018-07-10T08:49:31.808Z,1013.55
2018-07-10T08:50:31.807Z,1013.58
2018-07-10T08:51:31.805Z,1013.57
2018-07-10T08:52:31.814Z,1013.56
2018-07-10T08:53:31.811Z,1013.53
2018-07-10T08:54:31.806Z,1013.59
2018-07-10T08:55:31.808Z,1013.59
2018-07-10T08:56:31.807Z,1013.55
2018-07-10T08:57:31.808Z,1013.61
2018-07-10T08:58:31.813Z,1013.58
2018-07-10T08:59:31.817Z,1013.55
2018-07-10T09:00:31.814Z,1013.57
2018-07-10T09:01:31.815Z,1013.51
2018-07-10T09:02:31.811Z,1013.58
2018-07-10T09:03:31.811Z,1013.54
2018-07-10T09:04:31.811Z,1013.59
2018-07-10T09:05:31.819Z,1013.53
2018-07-10T09:06:31.820Z,1013.53
2018-07-10T09:07:31.818Z,1013.57
2018-07-10T09:08:31.813Z,1013.53
2018-07-10T09:09:31.816Z,1013.55
2018-07-10T09:10:31.819Z,1013.56
2018-07-10T09:11:31.820Z,1013.52
2018-07-10T09:12:31.817Z,1013.55
2018-07-10T09:13:31.819Z,1013.55
2018-07-10T09:14:31.816Z,1013.49
2018-07-10T09:15:31.816Z,1013.53
2018-07-10T09:16:31.814Z,1013.58
2018-07-10T09:17:31.815Z,1013.52
2018-07-10T09:18:31.819Z,1013.47
2018-07-10T09:19:31.821Z,1013.51
2018-07-10T09:20:31.819Z,1013.53
2018-07-10T09:21:31.820Z,1013.56
2018-07-10T09:22:31.816Z,1013.55
2018-07-10T09:23:31.817Z,1013.57
2018-07-10T09:24:31.824Z,1013.55
2018-07-10T09:25:31.821Z,1013.51
2018-07-10T09:26:31.816Z,1013.50
2018-07-10T09:27:31.817Z,1013.53
2018-07-10T09:28:31.817Z,1013.47
2018-07-10T09:29:31.816Z,1013.50
2018-07-10T09:30:31.821Z,1013.50
2018-07-10T09:31:31.821Z,1013.49
2018-07-10T09:32:31.821Z,1013.47
2018-07-10T09:33:31.887Z,1013.49
2018-07-10T09:34:31.818Z,1013.43
2018-07-10T09:35:31.817Z,1013.49
2018-07-10T09:36:31.818Z,1013.39
2018-07-10T09:37:31.816Z,1013.46
2018-07-10T09:38:31.821Z,1013.44
2018-07-10T09:39:31.821Z,1013.45
2018-07-10T09:40:31.816Z,1013.43
2018-07-10T09:41:31.817Z,1013.43
2018-07-10T09:42:31.821Z,1013.43
2018-07-10T09:43:31.821Z,1013.45
2018-07-10T09:44:31.822Z,1013.40
2018-07-10T09:45:31.825Z,1013.39
2018-07-10T09:46:31.819Z,1013.37
2018-07-10T09:47:31.817Z,1013.41
2018-07-10T09:48:31.816Z,1013.40
2018-07-10T09:49:31.817Z,1013.39
2018-07-10T09:50:31.821Z,1013.37
2018-07-10T09:51:31.822Z,1013.37
2018-07-10T09:52:31.819Z,1013.35
2018-07-10T09:53:31.819Z,1013.36
2018-07-10T09:54:31.815Z,1013.35
2018-07-10T09:55:31.816Z,1013.32
2018-07-10T09:56:31.819Z,1013.38
2018-07-10T09:57:31.819Z,1013.34
2018-07-10T09:58:31.815Z,1013.33
2018-07-10T09:59:31.816Z,1013.30
2018-07-10T10:00:31.816Z,1013.25
2018-07-10T10:01:31.814Z,1013.19
2018-07-10T10:03:12.300Z,1013.13
2018-07-10T10:04:12.287Z,1013.09
2018-07-10T10:05:12.288Z,1013.12
2018-07-10T10:06:12.285Z,1013.21
2018-07-10T10:07:12.287Z,1013.15
2018-07-10T10:08:12.297Z,1013.14
2018-07-10T10:09:12.291Z,1013.11
2018-07-10T10:10:12.287Z,1013.08
2018-07-10T10:11:12.287Z,1013.09
2018-07-10T10:12:12.295Z,1013.08
2018-07-10T10:13:12.291Z,1013.08
2018-07-10T10:14:12.291Z,1013.06
2018-07-10T10:15:12.293Z,1013.04
2018-07-10T10:16:12.287Z,1013.08
2018-07-10T10:17:12.288Z,1013.04
2018-07-10T10:18:12.291Z,1013.06
2018-07-10T10:19:06.834Z,1013.04
